Time;durP1;ratioP1;P1;durP2;ratioP2;P2;SDS_P1;SDS_P2;PMS_P1;PMS_P2;Temp;Humidity;BMP_temperature;BMP_pressure;BME280_temperature;BME280_humidity;BME280_pressure;Samples;Min_cycle;Max_cycle;Signal;HPM_P1;HPM_P2
2022/12/18 00:01:56;;;;;;;23.15;15.50;;;-5.60;99.90;;;;;;5057024;28;20388;-70
2022/12/18 00:04:23;;;;;;;21.58;15.30;;;-5.40;99.90;;;;;;5070689;28;20936;-70
2022/12/18 00:06:50;;;;;;;26.65;16.08;;;-5.60;99.90;;;;;;5071368;28;20391;-71
2022/12/18 00:09:16;;;;;;;27.10;15.60;;;-5.70;99.90;;;;;;5069880;28;20457;-69
2022/12/18 00:11:42;;;;;;;22.88;15.20;;;-5.70;99.90;;;;;;5071218;28;20923;-69
2022/12/18 00:14:08;;;;;;;23.42;15.00;;;-5.90;99.90;;;;;;5070488;28;20376;-69
2022/12/18 00:16:36;;;;;;;23.00;15.07;;;-6.00;99.90;;;;;;5071140;28;20387;-70
2022/12/18 00:19:03;;;;;;;22.50;15.63;;;-6.20;99.90;;;;;;5070998;28;20379;-70
2022/12/18 00:21:30;;;;;;;23.15;15.20;;;-6.00;99.90;;;;;;5071072;28;20423;-71
2022/12/18 00:23:55;;;;;;;21.65;15.20;;;-6.10;99.90;;;;;;5070409;28;20384;-70
2022/12/18 00:26:32;;;;;;;24.60;15.52;;;-6.20;99.90;;;;;;5070181;28;20449;-71
2022/12/18 00:29:04;;;;;;;20.13;13.95;;;-6.30;99.90;;;;;;5070557;28;20460;-71
2022/12/18 00:31:30;;;;;;;24.65;15.70;;;-6.40;99.90;;;;;;5056162;28;20471;-71
2022/12/18 00:33:56;;;;;;;24.50;15.43;;;-6.40;99.90;;;;;;5061649;28;20878;-71
2022/12/18 00:36:25;;;;;;;22.77;15.70;;;-6.50;99.90;;;;;;5070673;28;20376;-71
2022/12/18 00:38:52;;;;;;;22.83;16.00;;;-6.60;99.90;;;;;;5070917;28;20403;-71
2022/12/18 00:44:06;;;;;;;22.23;15.55;;;-6.60;99.90;;;;;;5040396;28;20517;-71
2022/12/18 00:46:32;;;;;;;21.67;15.82;;;-6.50;99.90;;;;;;5058828;28;20393;-71
2022/12/18 00:48:58;;;;;;;23.80;15.43;;;-6.50;99.90;;;;;;5050562;28;20397;-71
2022/12/18 00:51:24;;;;;;;24.10;16.05;;;-6.50;99.90;;;;;;5050520;28;20378;-72
2022/12/18 00:53:49;;;;;;;20.30;15.23;;;-6.60;99.90;;;;;;5049755;28;20386;-71
2022/12/18 00:56:15;;;;;;;24.07;16.20;;;-6.60;99.90;;;;;;5050513;28;20376;-69
2022/12/18 00:58:40;;;;;;;23.60;15.47;;;-6.80;99.90;;;;;;5050493;28;20466;-70
2022/12/18 01:01:06;;;;;;;22.10;15.30;;;-6.60;99.90;;;;;;5050369;28;20464;-70
2022/12/18 01:03:32;;;;;;;23.10;16.38;;;-6.50;99.90;;;;;;5049723;28;20377;-70
2022/12/18 01:05:58;;;;;;;23.60;16.47;;;-6.60;99.90;;;;;;5050424;28;20377;-70
2022/12/18 01:08:24;;;;;;;21.48;15.35;;;-6.60;99.90;;;;;;5051833;28;20431;-71
2022/12/18 01:10:49;;;;;;;21.20;14.80;;;-6.70;99.90;;;;;;5070282;28;20433;-71
2022/12/18 01:13:15;;;;;;;21.80;15.30;;;-6.70;99.90;;;;;;5069646;28;20378;-71
2022/12/18 01:15:47;;;;;;;19.63;14.37;;;-6.60;99.90;;;;;;5070429;28;20419;-70
2022/12/18 01:18:13;;;;;;;20.30;15.38;;;-6.50;99.90;;;;;;5070362;28;20386;-70
2022/12/18 01:20:38;;;;;;;20.33;14.90;;;-6.80;99.90;;;;;;5070412;28;20754;-71
2022/12/18 01:23:04;;;;;;;22.92;16.15;;;-6.90;99.90;;;;;;5069295;28;20396;-71
2022/12/18 01:25:29;;;;;;;19.55;15.40;;;-6.80;99.90;;;;;;5070193;28;20395;-71
2022/12/18 01:27:55;;;;;;;21.98;15.82;;;-6.70;99.90;;;;;;5063106;28;20408;-71
2022/12/18 01:30:20;;;;;;;23.10;15.03;;;-6.70;99.90;;;;;;5068678;28;20406;-71
2022/12/18 01:32:46;;;;;;;21.37;15.93;;;-6.80;99.90;;;;;;5069345;28;20395;-71
2022/12/18 01:35:11;;;;;;;21.67;15.17;;;-6.70;99.90;;;;;;5070238;28;20889;-71
2022/12/18 01:37:37;;;;;;;22.77;15.07;;;-6.80;99.90;;;;;;5070136;28;20391;-71
2022/12/18 01:40:02;;;;;;;23.13;15.57;;;-6.90;99.90;;;;;;5070035;28;20380;-71
2022/12/18 01:42:28;;;;;;;20.80;14.95;;;-6.70;99.90;;;;;;5069738;28;20386;-70
2022/12/18 01:44:54;;;;;;;19.95;14.23;;;-6.80;99.90;;;;;;5072872;28;20387;-71
2022/12/18 01:47:28;;;;;;;19.75;15.13;;;-6.90;99.90;;;;;;5072726;28;20962;-70
2022/12/18 01:49:55;;;;;;;21.77;15.32;;;-6.70;99.90;;;;;;5073983;28;20386;-70
2022/12/18 01:52:22;;;;;;;21.52;15.57;;;-6.90;99.90;;;;;;5072667;28;20421;-71
2022/12/18 01:54:49;;;;;;;23.40;16.15;;;-7.00;99.90;;;;;;5073395;28;20371;-71
2022/12/18 01:57:15;;;;;;;23.40;15.85;;;-6.90;99.90;;;;;;5073876;28;20376;-70
2022/12/18 01:59:44;;;;;;;22.25;15.20;;;-6.80;99.90;;;;;;5073909;28;20383;-71
2022/12/18 02:02:10;;;;;;;20.58;14.98;;;-6.70;99.90;;;;;;5073843;28;20440;-70
2022/12/18 02:04:36;;;;;;;21.48;15.60;;;-6.80;99.90;;;;;;5070068;28;20411;-71
2022/12/18 02:07:38;;;;;;;21.03;14.77;;;-7.00;99.90;;;;;;5053564;28;20506;-71
2022/12/18 02:10:18;;;;;;;21.27;15.88;;;-7.00;99.90;;;;;;5068733;28;20404;-71
2022/12/18 02:13:12;;;;;;;25.65;16.98;;;-6.80;99.90;;;;;;5072875;28;20380;-71
2022/12/18 02:15:43;;;;;;;22.37;15.10;;;-6.90;99.90;;;;;;5073723;28;20540;-70
2022/12/18 02:18:30;;;;;;;20.75;15.18;;;-6.70;99.90;;;;;;5073417;28;20383;-70
2022/12/18 02:21:08;;;;;;;20.75;15.07;;;-6.20;99.90;;;;;;5073383;28;20383;-69
2022/12/18 02:23:50;;;;;;;19.95;14.45;;;-6.40;99.90;;;;;;5072541;28;20387;-70
2022/12/18 02:26:19;;;;;;;20.75;15.18;;;-6.70;99.90;;;;;;5067005;28;20438;-70
2022/12/18 02:28:51;;;;;;;22.73;15.25;;;-6.80;99.90;;;;;;5064790;28;20909;-69
2022/12/18 02:31:23;;;;;;;23.20;16.42;;;-6.60;99.90;;;;;;5071432;28;20924;-70
2022/12/18 02:33:51;;;;;;;20.97;15.23;;;-6.70;99.90;;;;;;5066628;28;20450;-70
2022/12/18 02:36:19;;;;;;;19.08;14.93;;;-6.60;99.90;;;;;;5073052;28;20476;-70
2022/12/18 02:38:46;;;;;;;21.15;15.25;;;-6.50;99.90;;;;;;5064631;28;20380;-69
2022/12/18 02:41:14;;;;;;;22.08;15.30;;;-6.50;99.90;;;;;;5072992;28;20483;-70
2022/12/18 02:43:41;;;;;;;22.33;14.80;;;-6.60;99.90;;;;;;5072294;28;20614;-69
2022/12/18 02:46:34;;;;;;;20.73;15.13;;;-6.60;99.90;;;;;;5073054;28;20383;-70
2022/12/18 02:49:55;;;;;;;19.27;14.35;;;-6.60;99.90;;;;;;5072814;28;20396;-70
2022/12/18 02:52:48;;;;;;;20.00;15.00;;;-6.70;99.90;;;;;;4994231;28;20385;-70
2022/12/18 02:55:34;;;;;;;20.98;14.82;;;-6.70;99.90;;;;;;5063195;28;20388;-70
2022/12/18 02:58:13;;;;;;;20.67;15.35;;;-6.80;99.90;;;;;;5071565;28;20384;-70
2022/12/18 03:00:48;;;;;;;21.70;14.80;;;-6.60;99.90;;;;;;5072871;28;20391;-70
2022/12/18 03:03:24;;;;;;;20.90;15.18;;;-6.70;99.90;;;;;;5072002;28;20995;-70
2022/12/18 03:05:59;;;;;;;22.90;15.32;;;-6.80;99.90;;;;;;5072870;28;20403;-70
2022/12/18 03:08:33;;;;;;;21.37;14.70;;;-6.90;99.90;;;;;;5070804;28;20447;-70
2022/12/18 03:11:08;;;;;;;22.40;15.27;;;-6.70;99.90;;;;;;5052588;28;20412;-70
2022/12/18 03:13:46;;;;;;;21.57;15.50;;;-6.80;99.90;;;;;;5051712;28;20385;-70
2022/12/18 03:16:19;;;;;;;23.35;15.65;;;-6.90;99.90;;;;;;5051161;28;20453;-70
2022/12/18 03:18:49;;;;;;;21.27;14.80;;;-6.90;99.90;;;;;;5052313;28;20750;-70
2022/12/18 03:21:20;;;;;;;20.90;15.40;;;-6.90;99.90;;;;;;5052312;28;20386;-70
2022/12/18 03:23:50;;;;;;;21.93;15.10;;;-7.00;99.90;;;;;;5051517;28;20484;-70
2022/12/18 03:26:19;;;;;;;24.00;16.05;;;-7.00;99.90;;;;;;5052372;28;20408;-70
2022/12/18 03:29:00;;;;;;;25.48;15.77;;;-7.20;99.90;;;;;;5052257;28;20923;-71
2022/12/18 03:31:28;;;;;;;23.08;15.25;;;-7.30;99.90;;;;;;5060901;28;20480;-71
2022/12/18 03:33:58;;;;;;;22.20;15.55;;;-7.30;99.90;;;;;;5066295;28;20376;-70
2022/12/18 03:36:24;;;;;;;24.20;15.88;;;-7.40;99.90;;;;;;5070675;28;20380;-71
2022/12/18 03:38:50;;;;;;;20.77;15.20;;;-7.30;99.90;;;;;;5071983;28;20392;-70
2022/12/18 03:41:24;;;;;;;19.38;14.50;;;-7.40;99.90;;;;;;5071897;28;20395;-70
2022/12/18 03:44:27;;;;;;;24.52;15.65;;;-7.40;99.90;;;;;;5069865;28;20396;-70
2022/12/18 03:47:07;;;;;;;21.80;14.85;;;-7.40;99.90;;;;;;5071705;28;20386;-70
2022/12/18 03:49:47;;;;;;;19.98;13.88;;;-7.40;99.90;;;;;;5071672;28;20811;-70
2022/12/18 03:52:35;;;;;;;20.73;14.70;;;-7.30;99.90;;;;;;5071774;28;20501;-70
2022/12/18 03:55:03;;;;;;;22.65;15.40;;;-7.50;99.90;;;;;;5071627;28;20448;-70
2022/12/18 03:57:30;;;;;;;22.00;14.55;;;-7.50;99.90;;;;;;5071711;28;20756;-70
2022/12/18 04:00:00;;;;;;;22.52;15.13;;;-7.50;99.90;;;;;;5071534;28;20394;-70
2022/12/18 04:02:26;;;;;;;20.15;14.70;;;-7.50;99.90;;;;;;5071316;28;20380;-70
2022/12/18 04:04:54;;;;;;;21.15;14.70;;;-7.50;99.90;;;;;;5071253;28;20734;-70
2022/12/18 04:07:22;;;;;;;21.25;14.27;;;-7.40;99.90;;;;;;5071057;28;20746;-70
2022/12/18 04:09:50;;;;;;;20.17;13.65;;;-7.50;99.90;;;;;;5058052;28;20417;-70
2022/12/18 04:12:15;;;;;;;22.05;14.93;;;-7.40;99.90;;;;;;5050410;28;20411;-71
2022/12/18 04:14:41;;;;;;;21.27;14.73;;;-7.40;99.90;;;;;;5050774;28;20895;-70
2022/12/18 04:17:06;;;;;;;23.20;15.53;;;-7.50;99.90;;;;;;5051577;28;20875;-70
2022/12/18 04:19:32;;;;;;;21.00;14.10;;;-7.40;99.90;;;;;;5051446;28;20871;-70
2022/12/18 04:21:57;;;;;;;18.00;13.70;;;-7.60;99.90;;;;;;5051418;28;20394;-70
2022/12/18 04:24:23;;;;;;;18.42;13.05;;;-7.70;99.90;;;;;;5050282;28;20395;-70
2022/12/18 04:26:48;;;;;;;18.70;13.80;;;-7.70;99.90;;;;;;5057434;28;20483;-70
2022/12/18 04:29:14;;;;;;;19.23;13.67;;;-7.80;99.90;;;;;;5062874;28;20421;-70
2022/12/18 04:31:39;;;;;;;19.57;13.80;;;-7.80;99.90;;;;;;5066502;28;20381;-70
2022/12/18 04:34:05;;;;;;;19.13;13.37;;;-7.80;99.90;;;;;;5067038;28;20761;-70
2022/12/18 04:36:30;;;;;;;20.48;13.70;;;-7.80;99.90;;;;;;5071325;28;20379;-70
2022/12/18 04:38:56;;;;;;;16.23;11.77;;;-7.80;99.90;;;;;;5071019;28;20380;-70
2022/12/18 04:41:22;;;;;;;17.90;12.67;;;-8.10;99.90;;;;;;5070919;28;20749;-70
2022/12/18 04:43:47;;;;;;;17.07;12.13;;;-8.10;99.90;;;;;;5070331;28;20401;-70
2022/12/18 04:46:13;;;;;;;16.50;12.88;;;-8.00;99.90;;;;;;5071164;28;20391;-70
2022/12/18 04:48:39;;;;;;;16.48;12.60;;;-8.20;99.90;;;;;;5070962;28;20453;-70
2022/12/18 04:51:05;;;;;;;18.23;12.70;;;-8.30;99.90;;;;;;5070953;28;20384;-70
2022/12/18 04:53:31;;;;;;;17.90;12.80;;;-8.30;99.90;;;;;;5070030;28;20384;-70
2022/12/18 04:56:23;;;;;;;15.30;12.15;;;-8.00;99.90;;;;;;5070990;28;20765;-70
2022/12/18 04:58:49;;;;;;;18.25;12.30;;;-8.10;99.90;;;;;;5068679;28;20901;-70
2022/12/18 05:01:17;;;;;;;17.60;12.10;;;-8.10;99.90;;;;;;5069252;28;20498;-69
2022/12/18 05:03:42;;;;;;;17.05;12.20;;;-7.90;99.90;;;;;;5063295;28;20402;-69
2022/12/18 05:06:09;;;;;;;16.70;12.47;;;-8.10;99.90;;;;;;5070700;28;20476;-69
2022/12/18 05:08:34;;;;;;;16.55;11.40;;;-8.00;99.90;;;;;;5067398;28;20766;-70
2022/12/18 05:11:07;;;;;;;17.13;12.30;;;-8.20;99.90;;;;;;5050583;28;20385;-70
2022/12/18 05:13:35;;;;;;;15.77;11.80;;;-8.30;99.90;;;;;;5049790;28;20377;-70
2022/12/18 05:16:00;;;;;;;16.25;12.20;;;-8.20;99.90;;;;;;5050637;28;20968;-70
2022/12/18 05:18:26;;;;;;;15.17;11.97;;;-8.40;99.90;;;;;;5049441;28;20386;-69
2022/12/18 05:20:53;;;;;;;16.92;11.82;;;-8.40;99.90;;;;;;5050646;28;20381;-70
2022/12/18 05:23:19;;;;;;;16.85;12.27;;;-8.50;99.90;;;;;;5049860;28;20446;-70
2022/12/18 05:25:56;;;;;;;15.63;11.30;;;-8.40;99.90;;;;;;5050436;28;20476;-70
2022/12/18 05:28:24;;;;;;;16.85;11.80;;;-8.40;99.90;;;;;;5050368;28;20802;-70
2022/12/18 05:30:54;;;;;;;15.80;11.93;;;-8.40;99.90;;;;;;5050220;28;20440;-69
2022/12/18 05:33:21;;;;;;;16.30;10.70;;;-8.40;99.90;;;;;;5048415;28;20396;-70
2022/12/18 05:35:51;;;;;;;14.77;10.82;;;-8.40;99.90;;;;;;5050410;28;20868;-70
2022/12/18 05:38:17;;;;;;;14.90;10.50;;;-8.20;99.90;;;;;;5050446;28;20402;-70
2022/12/18 05:40:43;;;;;;;16.17;10.73;;;-8.20;99.90;;;;;;5050143;28;20405;-71
2022/12/18 05:43:10;;;;;;;16.05;11.02;;;-8.30;99.90;;;;;;5049571;28;20392;-71
2022/12/18 05:45:39;;;;;;;13.57;10.57;;;-8.40;99.90;;;;;;5050257;28;20390;-71
2022/12/18 05:48:05;;;;;;;14.25;10.50;;;-8.40;99.90;;;;;;5051592;28;20886;-71
2022/12/18 05:50:33;;;;;;;13.82;10.27;;;-8.30;99.90;;;;;;5059520;28;20381;-71
2022/12/18 05:52:58;;;;;;;14.00;10.40;;;-8.50;99.90;;;;;;5059720;28;20771;-71
2022/12/18 05:55:24;;;;;;;14.90;9.90;;;-8.50;99.90;;;;;;5056999;28;20443;-70
2022/12/18 05:57:49;;;;;;;15.10;10.67;;;-8.40;99.90;;;;;;5056424;28;20393;-69
2022/12/18 06:00:15;;;;;;;13.93;9.70;;;-8.40;99.90;;;;;;5055317;28;20464;-70
2022/12/18 06:02:41;;;;;;;13.32;9.55;;;-8.50;99.90;;;;;;5051463;28;20389;-70
2022/12/18 06:05:07;;;;;;;14.77;10.77;;;-8.50;99.90;;;;;;5051751;28;20824;-70
2022/12/18 06:07:32;;;;;;;15.25;10.30;;;-8.40;99.90;;;;;;5066034;28;20763;-70
2022/12/18 06:09:58;;;;;;;14.10;9.63;;;-8.50;99.90;;;;;;5051420;28;20428;-70
2022/12/18 06:12:23;;;;;;;12.17;9.10;;;-8.60;99.90;;;;;;5050384;28;20477;-70
2022/12/18 06:14:49;;;;;;;14.97;9.73;;;-8.70;99.90;;;;;;5050102;28;20806;-71
2022/12/18 06:17:14;;;;;;;13.47;9.80;;;-8.60;99.90;;;;;;5050756;28;20381;-70
2022/12/18 06:19:40;;;;;;;14.15;9.93;;;-8.50;99.90;;;;;;5050623;28;20394;-70
2022/12/18 06:22:05;;;;;;;15.75;10.82;;;-8.50;99.90;;;;;;5050208;28;20381;-70
2022/12/18 06:24:31;;;;;;;15.80;10.77;;;-8.50;99.90;;;;;;5049786;28;20392;-70
2022/12/18 06:26:56;;;;;;;13.23;10.07;;;-8.30;99.90;;;;;;5058611;28;20399;-70
2022/12/18 06:29:22;;;;;;;13.40;9.90;;;-8.40;99.90;;;;;;5062155;28;20929;-70
2022/12/18 06:31:47;;;;;;;13.05;9.45;;;-8.40;99.90;;;;;;5073685;28;20391;-70
2022/12/18 06:34:13;;;;;;;13.30;9.13;;;-8.30;99.90;;;;;;5064921;28;20378;-70
2022/12/18 06:36:38;;;;;;;14.10;10.30;;;-8.30;99.90;;;;;;5072675;28;20914;-70
2022/12/18 06:39:04;;;;;;;13.10;8.77;;;-8.30;99.90;;;;;;5073707;28;20480;-70
2022/12/18 06:41:29;;;;;;;14.27;9.70;;;-8.30;99.90;;;;;;5073211;28;20468;-70
2022/12/18 06:43:55;;;;;;;13.80;9.40;;;-8.20;99.90;;;;;;5072767;28;20416;-70
2022/12/18 06:46:21;;;;;;;14.98;10.70;;;-8.30;99.90;;;;;;5072115;28;21016;-71
2022/12/18 06:48:48;;;;;;;12.13;9.80;;;-8.10;99.90;;;;;;5073328;28;20432;-71
2022/12/18 06:51:17;;;;;;;12.83;9.60;;;-8.10;99.90;;;;;;5071932;28;20459;-71
2022/12/18 06:53:42;;;;;;;12.60;8.75;;;-8.20;99.90;;;;;;5067149;28;20386;-71
2022/12/18 06:56:08;;;;;;;12.50;9.43;;;-8.30;99.90;;;;;;5070057;28;20391;-70
2022/12/18 06:58:33;;;;;;;12.48;9.13;;;-8.30;99.90;;;;;;5071996;28;20464;-71
2022/12/18 07:01:01;;;;;;;11.90;9.83;;;-8.40;99.90;;;;;;5072923;28;20474;-71
2022/12/18 07:03:26;;;;;;;12.05;8.65;;;-8.30;99.90;;;;;;5072395;28;20404;-70
2022/12/18 07:05:52;;;;;;;9.55;7.97;;;-8.10;99.90;;;;;;5072977;28;20406;-70
2022/12/18 07:08:18;;;;;;;12.95;9.20;;;-8.30;99.90;;;;;;5071956;28;20488;-70
2022/12/18 07:10:43;;;;;;;13.20;8.93;;;-8.40;99.90;;;;;;5050945;28;20462;-70
2022/12/18 07:13:09;;;;;;;12.77;9.47;;;-8.40;99.90;;;;;;5052173;28;20378;-70
2022/12/18 07:15:34;;;;;;;11.07;7.78;;;-8.30;99.90;;;;;;5052785;28;20401;-70
2022/12/18 07:18:00;;;;;;;12.13;9.20;;;-8.10;99.90;;;;;;5052906;28;20405;-70
2022/12/18 07:20:26;;;;;;;10.47;7.90;;;-8.30;99.90;;;;;;5051049;28;20721;-70
2022/12/18 07:22:51;;;;;;;12.93;8.90;;;-8.30;99.90;;;;;;5051693;28;20583;-70
2022/12/18 07:25:17;;;;;;;9.53;7.60;;;-8.40;99.90;;;;;;5052635;28;20396;-69
2022/12/18 07:27:42;;;;;;;10.50;7.90;;;-8.30;99.90;;;;;;5052483;28;20817;-69
2022/12/18 07:30:09;;;;;;;11.48;8.00;;;-8.40;99.90;;;;;;5052505;28;20756;-69
2022/12/18 07:32:34;;;;;;;10.93;8.20;;;-8.30;99.90;;;;;;5051686;28;20378;-70
2022/12/18 07:35:00;;;;;;;12.57;8.47;;;-8.40;99.90;;;;;;5064153;28;20740;-70
2022/12/18 07:37:25;;;;;;;11.07;7.93;;;-8.20;99.90;;;;;;5071627;28;20391;-70
2022/12/18 07:39:51;;;;;;;8.43;7.20;;;-8.20;99.90;;;;;;5072219;28;20391;-70
2022/12/18 07:42:32;;;;;;;12.55;7.47;;;-8.40;99.90;;;;;;5071156;28;20399;-69
2022/12/18 07:45:01;;;;;;;10.63;7.80;;;-8.20;99.90;;;;;;5072025;28;20419;-69
2022/12/18 07:47:27;;;;;;;8.77;7.30;;;-8.20;99.90;;;;;;5071945;28;20384;-69
2022/12/18 07:49:52;;;;;;;9.90;7.47;;;-8.00;99.90;;;;;;5071785;28;20396;-68
2022/12/18 07:52:18;;;;;;;11.32;7.80;;;-8.10;99.90;;;;;;5071765;28;20407;-69
2022/12/18 07:54:45;;;;;;;10.50;7.83;;;-8.10;99.90;;;;;;5071110;28;20408;-70
2022/12/18 07:57:10;;;;;;;10.52;8.52;;;-8.30;99.90;;;;;;5071897;28;20413;-71
2022/12/18 07:59:36;;;;;;;12.82;9.07;;;-8.20;99.90;;;;;;5070611;28;20396;-69
2022/12/18 08:02:02;;;;;;;11.93;8.80;;;-8.30;99.90;;;;;;5070637;28;20392;-71
2022/12/18 08:04:28;;;;;;;12.63;8.90;;;-8.10;99.90;;;;;;5069935;28;20521;-69
2022/12/18 08:06:54;;;;;;;12.50;8.53;;;-8.00;99.90;;;;;;5072517;28;20405;-69
2022/12/18 08:09:19;;;;;;;12.95;9.40;;;-8.10;99.90;;;;;;5062119;28;20405;-70
2022/12/18 08:11:45;;;;;;;13.07;10.15;;;-7.90;99.90;;;;;;5051576;28;20387;-71
2022/12/18 08:14:10;;;;;;;15.90;11.40;;;-7.90;99.90;;;;;;5051080;28;20413;-71
2022/12/18 08:16:36;;;;;;;19.30;12.63;;;-7.80;99.90;;;;;;5051600;28;20388;-70
2022/12/18 08:19:02;;;;;;;19.50;12.60;;;-7.90;99.90;;;;;;5051547;28;20937;-70
2022/12/18 08:22:11;;;;;;;17.27;12.63;;;-7.70;99.90;;;;;;5051444;28;20882;-72
2022/12/18 08:24:35;;;;;;;17.40;11.98;;;-7.60;99.90;;;;;;5050304;28;20389;-70
2022/12/18 08:27:01;;;;;;;16.47;11.40;;;-7.60;99.90;;;;;;5059163;28;20395;-70
2022/12/18 08:29:26;;;;;;;15.13;11.37;;;-7.50;99.90;;;;;;5069298;28;20408;-70
2022/12/18 08:31:52;;;;;;;17.07;11.63;;;-7.70;99.90;;;;;;5062891;28;20376;-70
2022/12/18 08:34:17;;;;;;;14.55;11.65;;;-7.40;99.90;;;;;;5070520;28;20376;-70
2022/12/18 08:36:43;;;;;;;15.25;11.30;;;-7.30;99.90;;;;;;5070931;28;20454;-71
2022/12/18 08:39:09;;;;;;;14.95;10.30;;;-7.20;99.90;;;;;;5061614;28;20383;-71
2022/12/18 08:41:34;;;;;;;13.93;10.80;;;-7.10;99.90;;;;;;5070937;28;20415;-71
2022/12/18 08:46:44;;;;;;;15.40;11.50;;;-7.10;99.90;;;;;;5070900;28;20402;-70
2022/12/18 08:49:11;;;;;;;16.37;11.00;;;-7.20;99.90;;;;;;5069595;28;20487;-69
2022/12/18 08:51:37;;;;;;;16.42;11.00;;;-7.00;99.90;;;;;;5070816;28;20376;-70
2022/12/18 08:54:04;;;;;;;17.38;12.60;;;-7.10;99.90;;;;;;5070005;28;20822;-70
2022/12/18 08:56:30;;;;;;;15.32;12.40;;;-7.00;99.90;;;;;;5070839;28;20908;-70
2022/12/18 08:58:56;;;;;;;17.33;12.40;;;-7.00;99.90;;;;;;5070868;28;20388;-70
2022/12/18 09:01:22;;;;;;;15.50;11.70;;;-6.90;99.90;;;;;;5065612;28;20388;-70
2022/12/18 09:03:49;;;;;;;17.58;12.07;;;-6.60;99.90;;;;;;5060239;28;20533;-70
2022/12/18 09:06:19;;;;;;;15.25;12.70;;;-6.70;99.90;;;;;;5054493;28;20412;-70
2022/12/18 09:08:45;;;;;;;18.70;13.10;;;-6.60;99.90;;;;;;5059812;28;20412;-70
2022/12/18 09:11:19;;;;;;;17.55;12.57;;;-6.60;99.90;;;;;;5066998;28;20865;-70
2022/12/18 09:13:44;;;;;;;17.33;12.50;;;-6.60;99.90;;;;;;5063519;28;20391;-70
2022/12/18 09:16:10;;;;;;;16.90;12.98;;;-6.50;99.90;;;;;;5070597;28;20388;-70
2022/12/18 09:18:35;;;;;;;16.85;12.80;;;-6.30;99.90;;;;;;5070519;28;20391;-69
2022/12/18 09:21:11;;;;;;;19.13;12.57;;;-6.40;99.90;;;;;;5070369;28;20869;-70
2022/12/18 09:23:37;;;;;;;14.10;11.47;;;-6.30;99.90;;;;;;5070053;28;20461;-68
2022/12/18 09:26:02;;;;;;;15.07;12.15;;;-6.20;99.90;;;;;;5070418;28;20390;-69
2022/12/18 09:28:28;;;;;;;17.83;13.23;;;-6.10;99.90;;;;;;5068975;28;20407;-69
2022/12/18 09:30:54;;;;;;;17.70;12.60;;;-6.00;99.90;;;;;;5070784;28;20406;-69
2022/12/18 09:33:19;;;;;;;19.33;11.97;;;-5.90;99.90;;;;;;5068822;28;20719;-69
2022/12/18 09:35:45;;;;;;;18.95;13.75;;;-5.70;99.90;;;;;;5067289;28;20407;-69
2022/12/18 09:38:14;;;;;;;17.55;12.38;;;-5.60;99.90;;;;;;5067462;28;20384;-69
2022/12/18 09:40:49;;;;;;;21.25;13.98;;;-5.70;99.90;;;;;;5061852;28;20427;-69
2022/12/18 09:43:19;;;;;;;16.17;13.05;;;-5.50;99.90;;;;;;5069565;28;20907;-69
2022/12/18 09:45:51;;;;;;;20.63;14.43;;;-5.40;99.90;;;;;;5069112;28;20387;-69
2022/12/18 09:48:30;;;;;;;14.70;11.52;;;-5.40;99.90;;;;;;5070238;28;20391;-69
2022/12/18 09:51:11;;;;;;;17.20;13.18;;;-5.50;99.90;;;;;;5068637;28;20474;-69
2022/12/18 09:53:41;;;;;;;18.33;12.98;;;-5.30;99.90;;;;;;5069478;28;20371;-70
2022/12/18 09:56:12;;;;;;;17.30;13.90;;;-5.10;99.90;;;;;;5070381;28;20407;-70
2022/12/18 09:58:48;;;;;;;18.67;13.38;;;-4.90;99.90;;;;;;5070570;28;20392;-70
2022/12/18 10:01:22;;;;;;;18.60;13.70;;;-4.90;99.90;;;;;;5070564;28;20452;-70
2022/12/18 10:03:48;;;;;;;18.27;13.80;;;-4.90;99.90;;;;;;5069573;28;20408;-70
2022/12/18 10:06:38;;;;;;;18.65;13.15;;;-4.70;99.90;;;;;;5073745;28;20383;-70
2022/12/18 10:09:33;;;;;;;20.90;14.32;;;-4.70;99.90;;;;;;5066588;28;20437;-70
2022/12/18 10:12:16;;;;;;;19.05;14.60;;;-4.50;99.90;;;;;;5053911;28;20752;-70
2022/12/18 10:14:53;;;;;;;21.85;15.45;;;-4.30;99.90;;;;;;5053816;28;20373;-71
2022/12/18 10:17:25;;;;;;;19.53;14.10;;;-4.60;99.90;;;;;;5053460;28;20385;-71
2022/12/18 10:19:59;;;;;;;18.75;14.07;;;-4.50;99.90;;;;;;5054454;28;20384;-71
2022/12/18 10:22:57;;;;;;;18.15;13.70;;;-4.30;99.90;;;;;;5053497;28;20891;-70
2022/12/18 10:25:34;;;;;;;18.30;12.77;;;-3.80;99.90;;;;;;5053794;28;20396;-70
2022/12/18 10:28:14;;;;;;;17.85;13.80;;;-3.80;99.90;;;;;;5063355;28;20430;-71
2022/12/18 10:30:43;;;;;;;17.83;12.52;;;-3.70;99.90;;;;;;5067767;28;20386;-71
2022/12/18 10:33:19;;;;;;;16.90;12.93;;;-3.60;99.90;;;;;;5069839;28;20383;-70
2022/12/18 10:35:46;;;;;;;15.88;12.15;;;-3.50;99.90;;;;;;5073715;28;20383;-71
2022/12/18 10:38:12;;;;;;;17.10;13.90;;;-3.40;99.90;;;;;;5073436;28;20384;-71
2022/12/18 10:40:58;;;;;;;15.73;13.07;;;-3.30;99.90;;;;;;5073169;28;20411;-70
2022/12/18 10:43:25;;;;;;;15.37;12.00;;;-3.10;99.90;;;;;;5072621;28;20394;-71
2022/12/18 10:46:11;;;;;;;12.93;11.30;;;-2.90;99.90;;;;;;5073303;28;20384;-70
2022/12/18 10:48:52;;;;;;;11.70;9.80;;;-2.70;99.90;;;;;;5072711;28;20411;-70
2022/12/18 10:51:37;;;;;;;11.40;9.35;;;-2.50;99.90;;;;;;5073190;28;20455;-70
2022/12/18 10:54:14;;;;;;;12.63;10.70;;;-2.20;99.90;;;;;;5072469;28;20383;-69
2022/12/18 10:56:40;;;;;;;11.65;9.90;;;-1.80;99.90;;;;;;5073057;28;20388;-70
2022/12/18 10:59:16;;;;;;;12.67;10.10;;;-1.70;99.90;;;;;;5073087;28;20781;-71
2022/12/18 11:01:57;;;;;;;11.95;9.80;;;-1.50;99.90;;;;;;5073131;28;20391;-70
2022/12/18 11:04:25;;;;;;;11.45;9.38;;;-1.40;99.90;;;;;;5071976;28;20380;-69
2022/12/18 11:09:25;;;;;;;12.00;9.63;;;-1.50;99.90;;;;;;5052839;22;20431;-69
2022/12/18 11:12:01;;;;;;;11.45;9.93;;;-1.40;99.90;;;;;;5031514;28;20446;-69
2022/12/18 11:14:33;;;;;;;14.38;12.70;;;-1.10;99.90;;;;;;5031311;28;20900;-70
2022/12/18 11:17:00;;;;;;;17.90;14.50;;;-0.90;99.90;;;;;;5032467;28;20398;-69
2022/12/18 11:19:33;;;;;;;20.10;14.85;;;-0.90;99.90;;;;;;5032298;28;20387;-69
2022/12/18 11:22:01;;;;;;;19.80;15.38;;;-1.00;99.90;;;;;;5033120;28;20422;-70
2022/12/18 11:24:29;;;;;;;21.13;15.38;;;-1.30;99.90;;;;;;5032558;28;20383;-70
2022/12/18 11:26:57;;;;;;;21.35;15.88;;;-0.60;99.90;;;;;;5032871;28;20386;-70
2022/12/18 11:29:35;;;;;;;21.30;15.85;;;-0.80;99.90;;;;;;5032453;28;20411;-70
2022/12/18 11:32:30;;;;;;;25.15;16.40;;;-0.90;99.90;;;;;;5032295;28;20918;-69
2022/12/18 11:35:19;;;;;;;21.00;16.45;;;-1.40;99.90;;;;;;5030181;28;20440;-69
2022/12/18 11:37:53;;;;;;;21.80;16.60;;;-1.10;99.90;;;;;;5032699;28;20745;-69
2022/12/18 11:40:27;;;;;;;25.20;17.23;;;-1.70;99.90;;;;;;5032244;28;20510;-70
2022/12/18 11:43:04;;;;;;;24.73;18.27;;;-1.70;99.90;;;;;;5031505;28;20909;-69
2022/12/18 11:45:45;;;;;;;27.63;18.85;;;-2.20;99.90;;;;;;5032219;28;20383;-70
2022/12/18 11:48:28;;;;;;;23.27;18.02;;;-1.90;99.90;;;;;;5032293;28;20544;-70
2022/12/18 11:50:59;;;;;;;25.80;18.20;;;-1.50;99.90;;;;;;5014496;28;20406;-70
2022/12/18 11:53:26;;;;;;;21.48;16.30;;;-1.40;99.90;;;;;;5031292;28;20407;-70
2022/12/18 11:56:25;;;;;;;24.90;17.25;;;-1.60;99.90;;;;;;5031984;28;20386;-70
2022/12/18 11:59:01;;;;;;;26.13;17.83;;;-1.50;99.90;;;;;;5031811;28;20375;-70
2022/12/18 12:01:52;;;;;;;22.83;16.58;;;-1.60;99.90;;;;;;5031956;28;20418;-70
2022/12/18 12:04:47;;;;;;;25.25;18.23;;;-1.10;99.90;;;;;;5031036;28;20390;-70
2022/12/18 12:07:34;;;;;;;24.52;18.13;;;-1.10;99.90;;;;;;5031127;28;20856;-69
2022/12/18 12:10:48;;;;;;;24.02;18.60;;;-1.40;99.90;;;;;;5031644;28;20410;-70
2022/12/18 12:13:47;;;;;;;24.52;19.10;;;-1.40;99.90;;;;;;5002367;28;20428;-70
2022/12/18 12:16:25;;;;;;;22.85;17.95;;;-1.30;99.90;;;;;;5010646;28;20416;-70
2022/12/18 12:19:12;;;;;;;24.05;17.65;;;-1.50;99.90;;;;;;5011921;28;20895;-70
2022/12/18 12:21:49;;;;;;;22.38;18.00;;;-1.50;99.90;;;;;;5012274;28;20948;-70
2022/12/18 12:24:49;;;;;;;24.00;18.70;;;-1.80;99.90;;;;;;5010931;28;20399;-69
2022/12/18 12:27:39;;;;;;;24.83;19.55;;;-1.80;99.90;;;;;;5011156;28;20484;-69
2022/12/18 12:30:07;;;;;;;24.20;18.40;;;-1.90;99.90;;;;;;5011599;28;20411;-69
2022/12/18 12:32:39;;;;;;;26.77;18.95;;;-1.80;99.90;;;;;;5010851;28;20385;-69
2022/12/18 12:35:11;;;;;;;28.27;20.23;;;-1.70;99.90;;;;;;5011611;28;20535;-69
2022/12/18 12:37:57;;;;;;;27.10;19.20;;;-1.60;99.90;;;;;;5011541;28;20413;-69
2022/12/18 12:40:27;;;;;;;24.63;18.25;;;-1.60;99.90;;;;;;5011614;28;20898;-69
2022/12/18 12:43:13;;;;;;;26.90;19.57;;;-1.70;99.90;;;;;;5010532;28;20463;-69
2022/12/18 12:45:59;;;;;;;27.50;19.10;;;-1.70;99.90;;;;;;5011466;28;20381;-69
2022/12/18 12:48:33;;;;;;;26.55;18.90;;;-1.40;99.90;;;;;;4993673;28;20936;-71
2022/12/18 12:51:03;;;;;;;27.77;18.42;;;-1.50;99.90;;;;;;5011251;28;20543;-71
2022/12/18 12:53:36;;;;;;;21.88;17.30;;;-1.20;99.90;;;;;;5010451;28;20446;-70
2022/12/18 12:56:03;;;;;;;25.48;18.50;;;-1.00;99.90;;;;;;5011547;28;20396;-69